Terminal Aerodrome Forecast
Issued by NWS

Home | Current Version | Previous Version | Text Only | Print | Product List | Glossary On
Versions: 1 2 3 4 5 6 7 8 9 10 11 12 13 14 15 16 17 18 19 20 21 22 23 24 25 26 27 28
000
FTUS44 KHGX 300309 AAA
TAFSGR
TAF AMD
KSGR 300309Z 3003/3024 17015G20KT P6SM BKN018 OVC023
     FM300600 16012G22KT 6SM BR VCSH SCT015 BKN025
      TEMPO 3008/3012 -TSRA BKN015CB
     FM301500 19006KT P6SM BKN030
     FM302000 20006KT P6SM VCTS SCT035CB=

USA.gov is the U.S. government's official web portal to all federal, state and local government web resources and services.